Hammondsville, Vermont
Current Conditions -  °F | °C
As of 1:54 PM on Monday 22 Dec 2014 (Local Time) from KVSF Reporting Station
Overcast Overcast  
Wind Chill: 33°   Ceiling: 1600
Heat Index: 33°   Visibility: 10mi
Dew Point: 29°   Wind: 3mph
Humidity: 85%   Direction: 60°ENE
Pressure: 30.32"   Gusts: NA
Location:  43.4984°N, 72.5943°W
Report Text: KVSF 221854Z AUTO 06003KT 10SM OVC016 01/M02 A3032 RMK AO2 SNE1759B07E20 SLP274 P0000 T00061017 TSNO
Loading
Personal Weather Stations






























Interactive Weather Map New forecast layout! Learn more

10-Day Weather Forecast

Advertisements
Track Severe Weather on mobile